sensor_id;sensor_type;location;lat;lon;timestamp;pressure;altitude;pressure_sealevel;temperature
69007;BMP180;56061;51.748;19.620;2024-03-08T00:02:36;99758.20;;;-2.20
69007;BMP180;56061;51.748;19.620;2024-03-08T00:05:05;99758.40;;;-2.20
69007;BMP180;56061;51.748;19.620;2024-03-08T00:07:32;99756.20;;;-2.20
69007;BMP180;56061;51.748;19.620;2024-03-08T00:09:58;99751.60;;;-2.20
69007;BMP180;56061;51.748;19.620;2024-03-08T00:12:25;99751.60;;;-2.20
69007;BMP180;56061;51.748;19.620;2024-03-08T00:17:21;99754.60;;;-2.20
69007;BMP180;56061;51.748;19.620;2024-03-08T00:19:51;99750.80;;;-2.16
69007;BMP180;56061;51.748;19.620;2024-03-08T00:22:18;99751.20;;;-2.20
69007;BMP180;56061;51.748;19.620;2024-03-08T00:24:44;99754.00;;;-2.20
69007;BMP180;56061;51.748;19.620;2024-03-08T00:27:11;99744.60;;;-2.20
69007;BMP180;56061;51.748;19.620;2024-03-08T00:29:38;99745.00;;;-2.30
69007;BMP180;56061;51.748;19.620;2024-03-08T00:32:07;99737.00;;;-2.30
69007;BMP180;56061;51.748;19.620;2024-03-08T00:34:37;99738.40;;;-2.30
69007;BMP180;56061;51.748;19.620;2024-03-08T00:37:04;99742.60;;;-2.38
69007;BMP180;56061;51.748;19.620;2024-03-08T00:39:31;99739.20;;;-2.40
69007;BMP180;56061;51.748;19.620;2024-03-08T00:41:58;99738.60;;;-2.40
69007;BMP180;56061;51.748;19.620;2024-03-08T00:44:24;99737.20;;;-2.40
69007;BMP180;56061;51.748;19.620;2024-03-08T00:46:51;99746.20;;;-2.48
69007;BMP180;56061;51.748;19.620;2024-03-08T00:49:18;99742.40;;;-2.50
69007;BMP180;56061;51.748;19.620;2024-03-08T00:51:45;99742.60;;;-2.50
69007;BMP180;56061;51.748;19.620;2024-03-08T00:54:11;99742.60;;;-2.50
69007;BMP180;56061;51.748;19.620;2024-03-08T00:56:38;99741.80;;;-2.50
69007;BMP180;56061;51.748;19.620;2024-03-08T00:59:07;99738.20;;;-2.48
69007;BMP180;56061;51.748;19.620;2024-03-08T01:01:33;99732.40;;;-2.50
69007;BMP180;56061;51.748;19.620;2024-03-08T01:04:00;99731.00;;;-2.50
69007;BMP180;56061;51.748;19.620;2024-03-08T01:06:26;99732.40;;;-2.50
69007;BMP180;56061;51.748;19.620;2024-03-08T01:08:53;99726.80;;;-2.50
69007;BMP180;56061;51.748;19.620;2024-03-08T01:11:19;99729.80;;;-2.50
69007;BMP180;56061;51.748;19.620;2024-03-08T01:13:45;99730.60;;;-2.56
69007;BMP180;56061;51.748;19.620;2024-03-08T01:16:13;99728.40;;;-2.60
69007;BMP180;56061;51.748;19.620;2024-03-08T01:18:43;99725.40;;;-2.60
69007;BMP180;56061;51.748;19.620;2024-03-08T01:21:10;99724.20;;;-2.60
69007;BMP180;56061;51.748;19.620;2024-03-08T01:23:37;99725.40;;;-2.70
69007;BMP180;56061;51.748;19.620;2024-03-08T01:26:04;99725.00;;;-2.70
69007;BMP180;56061;51.748;19.620;2024-03-08T01:28:31;99721.20;;;-2.70
69007;BMP180;56061;51.748;19.620;2024-03-08T01:30:58;99722.20;;;-2.80
69007;BMP180;56061;51.748;19.620;2024-03-08T01:33:26;99718.20;;;-2.80
69007;BMP180;56061;51.748;19.620;2024-03-08T01:38:21;99711.60;;;-2.90
69007;BMP180;56061;51.748;19.620;2024-03-08T01:40:49;99710.60;;;-2.90
69007;BMP180;56061;51.748;19.620;2024-03-08T01:43:20;99708.40;;;-2.90
69007;BMP180;56061;51.748;19.620;2024-03-08T01:45:47;99711.80;;;-2.90
69007;BMP180;56061;51.748;19.620;2024-03-08T01:48:16;99711.60;;;-2.98
69007;BMP180;56061;51.748;19.620;2024-03-08T01:50:45;99711.80;;;-3.00
69007;BMP180;56061;51.748;19.620;2024-03-08T01:53:12;99717.60;;;-3.10
69007;BMP180;56061;51.748;19.620;2024-03-08T01:55:39;99714.40;;;-3.20
69007;BMP180;56061;51.748;19.620;2024-03-08T01:58:06;99711.60;;;-3.20
69007;BMP180;56061;51.748;19.620;2024-03-08T02:00:35;99709.20;;;-3.20
69007;BMP180;56061;51.748;19.620;2024-03-08T02:03:03;99713.20;;;-3.30
69007;BMP180;56061;51.748;19.620;2024-03-08T02:05:30;99706.60;;;-3.30
69007;BMP180;56061;51.748;19.620;2024-03-08T02:07:57;99704.40;;;-3.28
69007;BMP180;56061;51.748;19.620;2024-03-08T02:10:24;99702.40;;;-3.20
69007;BMP180;56061;51.748;19.620;2024-03-08T02:12:50;99707.80;;;-3.20
69007;BMP180;56061;51.748;19.620;2024-03-08T02:15:17;99701.80;;;-3.20
69007;BMP180;56061;51.748;19.620;2024-03-08T02:17:44;99704.40;;;-3.20
69007;BMP180;56061;51.748;19.620;2024-03-08T02:20:11;99700.60;;;-3.20
69007;BMP180;56061;51.748;19.620;2024-03-08T02:22:39;99707.00;;;-3.20
69007;BMP180;56061;51.748;19.620;2024-03-08T02:25:08;99707.80;;;-3.20
69007;BMP180;56061;51.748;19.620;2024-03-08T02:27:35;99706.20;;;-3.20
69007;BMP180;56061;51.748;19.620;2024-03-08T02:30:02;99711.20;;;-3.20
69007;BMP180;56061;51.748;19.620;2024-03-08T02:32:28;99708.80;;;-3.30
69007;BMP180;56061;51.748;19.620;2024-03-08T02:34:56;99704.00;;;-3.40
69007;BMP180;56061;51.748;19.620;2024-03-08T02:37:26;99706.00;;;-3.40
69007;BMP180;56061;51.748;19.620;2024-03-08T02:39:55;99705.20;;;-3.50
69007;BMP180;56061;51.748;19.620;2024-03-08T02:42:22;99701.40;;;-3.50
69007;BMP180;56061;51.748;19.620;2024-03-08T02:44:49;99703.60;;;-3.52
69007;BMP180;56061;51.748;19.620;2024-03-08T02:47:15;99699.20;;;-3.54
69007;BMP180;56061;51.748;19.620;2024-03-08T02:49:42;99700.00;;;-3.60
69007;BMP180;56061;51.748;19.620;2024-03-08T02:52:08;99699.60;;;-3.60
69007;BMP180;56061;51.748;19.620;2024-03-08T02:54:35;99694.20;;;-3.60
69007;BMP180;56061;51.748;19.620;2024-03-08T02:57:03;99694.00;;;-3.60
69007;BMP180;56061;51.748;19.620;2024-03-08T02:59:30;99696.00;;;-3.56
69007;BMP180;56061;51.748;19.620;2024-03-08T03:01:57;99692.20;;;-3.52
69007;BMP180;56061;51.748;19.620;2024-03-08T03:04:24;99686.40;;;-3.50
69007;BMP180;56061;51.748;19.620;2024-03-08T03:06:50;99683.20;;;-3.50
69007;BMP180;56061;51.748;19.620;2024-03-08T03:09:17;99682.00;;;-3.54
69007;BMP180;56061;51.748;19.620;2024-03-08T03:11:49;99687.20;;;-3.52
69007;BMP180;56061;51.748;19.620;2024-03-08T03:14:16;99686.40;;;-3.60
69007;BMP180;56061;51.748;19.620;2024-03-08T03:16:42;99685.00;;;-3.60
69007;BMP180;56061;51.748;19.620;2024-03-08T03:19:10;99687.40;;;-3.60
69007;BMP180;56061;51.748;19.620;2024-03-08T03:21:36;99682.00;;;-3.60
69007;BMP180;56061;51.748;19.620;2024-03-08T03:24:05;99685.60;;;-3.60
69007;BMP180;56061;51.748;19.620;2024-03-08T03:26:37;99681.00;;;-3.60
69007;BMP180;56061;51.748;19.620;2024-03-08T03:29:05;99681.20;;;-3.60
69007;BMP180;56061;51.748;19.620;2024-03-08T03:31:35;99681.20;;;-3.62
69007;BMP180;56061;51.748;19.620;2024-03-08T03:34:02;99681.80;;;-3.66
69007;BMP180;56061;51.748;19.620;2024-03-08T03:36:30;99677.20;;;-3.70
69007;BMP180;56061;51.748;19.620;2024-03-08T03:38:57;99684.60;;;-3.70
69007;BMP180;56061;51.748;19.620;2024-03-08T03:41:32;99690.00;;;-3.70
69007;BMP180;56061;51.748;19.620;2024-03-08T03:43:59;99687.60;;;-3.70
69007;BMP180;56061;51.748;19.620;2024-03-08T03:46:25;99679.60;;;-3.70
69007;BMP180;56061;51.748;19.620;2024-03-08T03:51:25;99681.40;;;-3.70
69007;BMP180;56061;51.748;19.620;2024-03-08T03:53:52;99681.00;;;-3.70
69007;BMP180;56061;51.748;19.620;2024-03-08T03:56:19;99684.40;;;-3.62
69007;BMP180;56061;51.748;19.620;2024-03-08T03:58:45;99682.20;;;-3.60
69007;BMP180;56061;51.748;19.620;2024-03-08T04:01:12;99679.00;;;-3.60
69007;BMP180;56061;51.748;19.620;2024-03-08T04:03:41;99680.40;;;-3.60
69007;BMP180;56061;51.748;19.620;2024-03-08T04:06:09;99678.40;;;-3.64
69007;BMP180;56061;51.748;19.620;2024-03-08T04:08:35;99678.00;;;-3.62
69007;BMP180;56061;51.748;19.620;2024-03-08T04:11:02;99674.20;;;-3.60
69007;BMP180;56061;51.748;19.620;2024-03-08T04:13:29;99667.40;;;-3.60
69007;BMP180;56061;51.748;19.620;2024-03-08T04:15:55;99669.40;;;-3.60
69007;BMP180;56061;51.748;19.620;2024-03-08T04:18:22;99668.80;;;-3.60
69007;BMP180;56061;51.748;19.620;2024-03-08T04:20:48;99666.00;;;-3.60
69007;BMP180;56061;51.748;19.620;2024-03-08T04:23:15;99661.40;;;-3.60
69007;BMP180;56061;51.748;19.620;2024-03-08T04:25:42;99665.40;;;-3.60
69007;BMP180;56061;51.748;19.620;2024-03-08T04:28:09;99663.20;;;-3.60
69007;BMP180;56061;51.748;19.620;2024-03-08T04:30:39;99671.60;;;-3.58
69007;BMP180;56061;51.748;19.620;2024-03-08T04:33:09;99669.00;;;-3.50
69007;BMP180;56061;51.748;19.620;2024-03-08T04:35:36;99668.60;;;-3.52
69007;BMP180;56061;51.748;19.620;2024-03-08T04:38:03;99666.20;;;-3.60
69007;BMP180;56061;51.748;19.620;2024-03-08T04:40:32;99667.20;;;-3.60
69007;BMP180;56061;51.748;19.620;2024-03-08T04:42:59;99669.20;;;-3.60
69007;BMP180;56061;51.748;19.620;2024-03-08T04:45:25;99675.00;;;-3.60
69007;BMP180;56061;51.748;19.620;2024-03-08T04:47:52;99678.20;;;-3.60
69007;BMP180;56061;51.748;19.620;2024-03-08T04:50:19;99674.60;;;-3.60
69007;BMP180;56061;51.748;19.620;2024-03-08T04:52:45;99673.80;;;-3.62
69007;BMP180;56061;51.748;19.620;2024-03-08T04:55:12;99676.00;;;-3.66
69007;BMP180;56061;51.748;19.620;2024-03-08T04:57:38;99668.20;;;-3.70
69007;BMP180;56061;51.748;19.620;2024-03-08T05:00:06;99669.20;;;-3.70
69007;BMP180;56061;51.748;19.620;2024-03-08T05:02:38;99679.80;;;-3.70
69007;BMP180;56061;51.748;19.620;2024-03-08T05:05:08;99680.40;;;-3.70
69007;BMP180;56061;51.748;19.620;2024-03-08T05:07:41;99673.80;;;-3.74
69007;BMP180;56061;51.748;19.620;2024-03-08T05:10:11;99674.40;;;-3.80
69007;BMP180;56061;51.748;19.620;2024-03-08T05:12:38;99671.20;;;-3.80
69007;BMP180;56061;51.748;19.620;2024-03-08T05:15:06;99662.40;;;-3.80
69007;BMP180;56061;51.748;19.620;2024-03-08T05:17:33;99664.00;;;-3.80
69007;BMP180;56061;51.748;19.620;2024-03-08T05:20:00;99663.00;;;-3.76
69007;BMP180;56061;51.748;19.620;2024-03-08T05:22:27;99659.40;;;-3.80
69007;BMP180;56061;51.748;19.620;2024-03-08T05:24:54;99662.60;;;-3.80
69007;BMP180;56061;51.748;19.620;2024-03-08T05:27:19;99659.40;;;-3.74
69007;BMP180;56061;51.748;19.620;2024-03-08T05:29:46;99660.20;;;-3.70
69007;BMP180;56061;51.748;19.620;2024-03-08T05:32:13;99664.60;;;-3.72
69007;BMP180;56061;51.748;19.620;2024-03-08T05:34:40;99663.20;;;-3.72
69007;BMP180;56061;51.748;19.620;2024-03-08T05:37:07;99660.60;;;-3.78
69007;BMP180;56061;51.748;19.620;2024-03-08T05:39:33;99660.40;;;-3.78
69007;BMP180;56061;51.748;19.620;2024-03-08T05:42:00;99661.00;;;-3.80
69007;BMP180;56061;51.748;19.620;2024-03-08T05:44:26;99662.80;;;-3.76
69007;BMP180;56061;51.748;19.620;2024-03-08T05:46:55;99665.40;;;-3.70
69007;BMP180;56061;51.748;19.620;2024-03-08T05:49:22;99658.80;;;-3.70
69007;BMP180;56061;51.748;19.620;2024-03-08T05:51:48;99664.80;;;-3.70
69007;BMP180;56061;51.748;19.620;2024-03-08T05:54:15;99663.80;;;-3.66
69007;BMP180;56061;51.748;19.620;2024-03-08T05:56:46;99665.00;;;-3.60
69007;BMP180;56061;51.748;19.620;2024-03-08T05:59:14;99666.00;;;-3.58
69007;BMP180;56061;51.748;19.620;2024-03-08T06:01:41;99664.40;;;-3.50
69007;BMP180;56061;51.748;19.620;2024-03-08T06:04:09;99666.00;;;-3.40
69007;BMP180;56061;51.748;19.620;2024-03-08T06:06:38;99667.80;;;-3.30
69007;BMP180;56061;51.748;19.620;2024-03-08T06:09:04;99667.20;;;-3.28
69007;BMP180;56061;51.748;19.620;2024-03-08T06:11:38;99667.20;;;-3.18
69007;BMP180;56061;51.748;19.620;2024-03-08T06:14:04;99662.00;;;-3.04
69007;BMP180;56061;51.748;19.620;2024-03-08T06:16:33;99663.00;;;-3.00
69007;BMP180;56061;51.748;19.620;2024-03-08T06:19:02;99665.20;;;-2.90
69007;BMP180;56061;51.748;19.620;2024-03-08T06:21:29;99666.00;;;-2.80
69007;BMP180;56061;51.748;19.620;2024-03-08T06:23:56;99668.00;;;-2.70
69007;BMP180;56061;51.748;19.620;2024-03-08T06:26:25;99666.20;;;-2.60
69007;BMP180;56061;51.748;19.620;2024-03-08T06:28:56;99665.80;;;-2.50
69007;BMP180;56061;51.748;19.620;2024-03-08T06:31:23;99671.20;;;-2.40
69007;BMP180;56061;51.748;19.620;2024-03-08T06:33:50;99671.00;;;-2.30
69007;BMP180;56061;51.748;19.620;2024-03-08T06:36:17;99671.40;;;-2.24
69007;BMP180;56061;51.748;19.620;2024-03-08T06:38:45;99669.00;;;-2.12
69007;BMP180;56061;51.748;19.620;2024-03-08T06:41:12;99672.20;;;-2.02
69007;BMP180;56061;51.748;19.620;2024-03-08T06:43:47;99668.60;;;-1.90
69007;BMP180;56061;51.748;19.620;2024-03-08T06:46:15;99662.20;;;-1.80
69007;BMP180;56061;51.748;19.620;2024-03-08T06:48:42;99660.40;;;-1.70
69007;BMP180;56061;51.748;19.620;2024-03-08T06:51:09;99659.40;;;-1.60
69007;BMP180;56061;51.748;19.620;2024-03-08T06:53:37;99658.80;;;-1.50
69007;BMP180;56061;51.748;19.620;2024-03-08T06:56:05;99656.20;;;-1.40
69007;BMP180;56061;51.748;19.620;2024-03-08T06:58:33;99651.20;;;-1.26
69007;BMP180;56061;51.748;19.620;2024-03-08T07:01:00;99656.80;;;-1.10
69007;BMP180;56061;51.748;19.620;2024-03-08T07:03:30;99651.00;;;-1.00
69007;BMP180;56061;51.748;19.620;2024-03-08T07:05:58;99652.20;;;-0.88
69007;BMP180;56061;51.748;19.620;2024-03-08T07:08:25;99655.20;;;-0.70
69007;BMP180;56061;51.748;19.620;2024-03-08T07:10:54;99649.40;;;-0.60
69007;BMP180;56061;51.748;19.620;2024-03-08T07:13:20;99650.40;;;-0.46
69007;BMP180;56061;51.748;19.620;2024-03-08T07:15:48;99650.40;;;-0.30
69007;BMP180;56061;51.748;19.620;2024-03-08T07:18:14;99653.00;;;-0.20
69007;BMP180;56061;51.748;19.620;2024-03-08T07:20:41;99650.60;;;-0.10
69007;BMP180;56061;51.748;19.620;2024-03-08T07:23:10;99650.20;;;0.02
69007;BMP180;56061;51.748;19.620;2024-03-08T07:25:37;99648.20;;;0.18
69007;BMP180;56061;51.748;19.620;2024-03-08T07:28:05;99657.20;;;0.30
69007;BMP180;56061;51.748;19.620;2024-03-08T07:30:35;99654.80;;;0.40
69007;BMP180;56061;51.748;19.620;2024-03-08T07:33:12;99650.60;;;0.50
69007;BMP180;56061;51.748;19.620;2024-03-08T07:35:40;99655.80;;;0.62
69007;BMP180;56061;51.748;19.620;2024-03-08T07:38:08;99649.60;;;0.80
69007;BMP180;56061;51.748;19.620;2024-03-08T07:40:38;99650.20;;;0.90
69007;BMP180;56061;51.748;19.620;2024-03-08T07:43:08;99642.80;;;0.96
69007;BMP180;56061;51.748;19.620;2024-03-08T07:45:34;99644.20;;;1.04
69007;BMP180;56061;51.748;19.620;2024-03-08T07:48:02;99642.60;;;1.10
69007;BMP180;56061;51.748;19.620;2024-03-08T07:50:29;99640.60;;;1.22
69007;BMP180;56061;51.748;19.620;2024-03-08T07:52:56;99643.40;;;1.32
69007;BMP180;56061;51.748;19.620;2024-03-08T07:55:23;99641.40;;;1.40
69007;BMP180;56061;51.748;19.620;2024-03-08T07:57:51;99647.80;;;1.50
69007;BMP180;56061;51.748;19.620;2024-03-08T08:00:17;99640.80;;;1.60
69007;BMP180;56061;51.748;19.620;2024-03-08T08:02:45;99631.00;;;1.70
69007;BMP180;56061;51.748;19.620;2024-03-08T08:05:16;99632.40;;;1.80
69007;BMP180;56061;51.748;19.620;2024-03-08T08:07:45;99631.20;;;1.90
69007;BMP180;56061;51.748;19.620;2024-03-08T08:10:16;99631.60;;;1.92
69007;BMP180;56061;51.748;19.620;2024-03-08T08:12:49;99629.60;;;2.00
69007;BMP180;56061;51.748;19.620;2024-03-08T08:15:15;99630.20;;;2.10
69007;BMP180;56061;51.748;19.620;2024-03-08T08:17:42;99630.20;;;2.10
69007;BMP180;56061;51.748;19.620;2024-03-08T08:20:10;99630.40;;;2.16
69007;BMP180;56061;51.748;19.620;2024-03-08T08:22:39;99630.60;;;2.20
69007;BMP180;56061;51.748;19.620;2024-03-08T08:25:07;99632.40;;;2.30
69007;BMP180;56061;51.748;19.620;2024-03-08T08:27:34;99632.40;;;2.30
69007;BMP180;56061;51.748;19.620;2024-03-08T08:30:03;99632.20;;;2.40
69007;BMP180;56061;51.748;19.620;2024-03-08T08:32:35;99636.60;;;2.48
69007;BMP180;56061;51.748;19.620;2024-03-08T08:35:10;99635.20;;;2.50
69007;BMP180;56061;51.748;19.620;2024-03-08T08:37:39;99630.20;;;2.60
69007;BMP180;56061;51.748;19.620;2024-03-08T08:40:07;99625.00;;;2.60
69007;BMP180;56061;51.748;19.620;2024-03-08T08:42:41;99629.40;;;2.70
69007;BMP180;56061;51.748;19.620;2024-03-08T08:45:09;99625.40;;;2.70
69007;BMP180;56061;51.748;19.620;2024-03-08T08:47:44;99628.80;;;2.80
69007;BMP180;56061;51.748;19.620;2024-03-08T08:50:12;99627.40;;;2.90
69007;BMP180;56061;51.748;19.620;2024-03-08T08:52:40;99623.00;;;3.00
69007;BMP180;56061;51.748;19.620;2024-03-08T08:55:07;99625.60;;;3.00
69007;BMP180;56061;51.748;19.620;2024-03-08T08:57:34;99618.60;;;3.10
69007;BMP180;56061;51.748;19.620;2024-03-08T09:00:03;99613.80;;;3.18
69007;BMP180;56061;51.748;19.620;2024-03-08T09:02:34;99612.20;;;3.22
69007;BMP180;56061;51.748;19.620;2024-03-08T09:05:01;99613.20;;;3.30
69007;BMP180;56061;51.748;19.620;2024-03-08T09:07:28;99614.80;;;3.40
69007;BMP180;56061;51.748;19.620;2024-03-08T09:09:55;99613.60;;;3.40
69007;BMP180;56061;51.748;19.620;2024-03-08T09:12:24;99614.20;;;3.50
69007;BMP180;56061;51.748;19.620;2024-03-08T09:14:51;99605.80;;;3.60
69007;BMP180;56061;51.748;19.620;2024-03-08T09:17:17;99603.80;;;3.68
69007;BMP180;56061;51.748;19.620;2024-03-08T09:19:47;99598.80;;;3.70
69007;BMP180;56061;51.748;19.620;2024-03-08T09:22:14;99601.80;;;3.80
69007;BMP180;56061;51.748;19.620;2024-03-08T09:24:41;99594.00;;;3.88
69007;BMP180;56061;51.748;19.620;2024-03-08T09:27:09;99590.40;;;3.90
69007;BMP180;56061;51.748;19.620;2024-03-08T09:29:36;99588.80;;;4.00
69007;BMP180;56061;51.748;19.620;2024-03-08T09:32:03;99588.00;;;4.02
69007;BMP180;56061;51.748;19.620;2024-03-08T09:34:29;99584.40;;;4.10
69007;BMP180;56061;51.748;19.620;2024-03-08T09:37:03;99580.20;;;4.18
69007;BMP180;56061;51.748;19.620;2024-03-08T09:39:31;99582.80;;;4.20
69007;BMP180;56061;51.748;19.620;2024-03-08T09:42:01;99576.00;;;4.26
69007;BMP180;56061;51.748;19.620;2024-03-08T09:44:27;99577.00;;;4.30
69007;BMP180;56061;51.748;19.620;2024-03-08T09:46:55;99576.00;;;4.30
69007;BMP180;56061;51.748;19.620;2024-03-08T09:49:22;99572.40;;;4.40
69007;BMP180;56061;51.748;19.620;2024-03-08T09:51:50;99566.00;;;4.40
69007;BMP180;56061;51.748;19.620;2024-03-08T09:54:19;99571.00;;;4.54
69007;BMP180;56061;51.748;19.620;2024-03-08T09:56:51;99567.20;;;4.60
69007;BMP180;56061;51.748;19.620;2024-03-08T09:59:18;99565.00;;;4.70
69007;BMP180;56061;51.748;19.620;2024-03-08T10:01:54;99566.00;;;4.78
69007;BMP180;56061;51.748;19.620;2024-03-08T10:04:23;99558.80;;;4.80
69007;BMP180;56061;51.748;19.620;2024-03-08T10:06:49;99564.00;;;4.90
69007;BMP180;56061;51.748;19.620;2024-03-08T10:09:16;99566.40;;;4.96
69007;BMP180;56061;51.748;19.620;2024-03-08T10:11:43;99564.20;;;5.00
69007;BMP180;56061;51.748;19.620;2024-03-08T10:14:10;99558.00;;;5.00
69007;BMP180;56061;51.748;19.620;2024-03-08T10:16:40;99557.80;;;5.10
69007;BMP180;56061;51.748;19.620;2024-03-08T10:19:06;99549.60;;;5.12
69007;BMP180;56061;51.748;19.620;2024-03-08T10:21:34;99553.00;;;5.20
69007;BMP180;56061;51.748;19.620;2024-03-08T10:24:02;99549.80;;;5.20
69007;BMP180;56061;51.748;19.620;2024-03-08T10:26:30;99548.20;;;5.20
69007;BMP180;56061;51.748;19.620;2024-03-08T10:28:57;99548.20;;;5.20
69007;BMP180;56061;51.748;19.620;2024-03-08T10:31:24;99547.40;;;5.22
69007;BMP180;56061;51.748;19.620;2024-03-08T10:33:51;99540.80;;;5.30
69007;BMP180;56061;51.748;19.620;2024-03-08T10:36:18;99539.20;;;5.30
69007;BMP180;56061;51.748;19.620;2024-03-08T10:38:46;99537.60;;;5.40
69007;BMP180;56061;51.748;19.620;2024-03-08T10:41:17;99538.00;;;5.50
69007;BMP180;56061;51.748;19.620;2024-03-08T10:46:57;99536.00;;;5.60
69007;BMP180;56061;51.748;19.620;2024-03-08T10:49:30;99530.20;;;5.64
69007;BMP180;56061;51.748;19.620;2024-03-08T10:52:03;99527.40;;;5.70
69007;BMP180;56061;51.748;19.620;2024-03-08T10:54:33;99528.60;;;5.70
69007;BMP180;56061;51.748;19.620;2024-03-08T10:57:03;99529.80;;;5.80
69007;BMP180;56061;51.748;19.620;2024-03-08T10:59:33;99528.60;;;5.84
69007;BMP180;56061;51.748;19.620;2024-03-08T11:02:00;99526.80;;;5.90
69007;BMP180;56061;51.748;19.620;2024-03-08T11:04:27;99524.00;;;5.98
69007;BMP180;56061;51.748;19.620;2024-03-08T11:07:01;99520.40;;;6.00
69007;BMP180;56061;51.748;19.620;2024-03-08T11:09:35;99522.80;;;6.16
69007;BMP180;56061;51.748;19.620;2024-03-08T11:14:53;99520.60;;;6.20
69007;BMP180;56061;51.748;19.620;2024-03-08T11:17:40;99518.20;;;6.20
69007;BMP180;56061;51.748;19.620;2024-03-08T11:25:39;99515.40;;;6.30
69007;BMP180;56061;51.748;19.620;2024-03-08T11:28:15;99511.80;;;6.30
69007;BMP180;56061;51.748;19.620;2024-03-08T11:33:22;99509.20;;;6.40
69007;BMP180;56061;51.748;19.620;2024-03-08T11:35:49;99506.60;;;6.50
69007;BMP180;56061;51.748;19.620;2024-03-08T11:38:16;99512.60;;;6.50
69007;BMP180;56061;51.748;19.620;2024-03-08T11:40:46;99503.40;;;6.50
69007;BMP180;56061;51.748;19.620;2024-03-08T11:43:16;99499.80;;;6.60
69007;BMP180;56061;51.748;19.620;2024-03-08T11:45:42;99498.20;;;6.50
69007;BMP180;56061;51.748;19.620;2024-03-08T11:48:09;99494.60;;;6.50
69007;BMP180;56061;51.748;19.620;2024-03-08T11:50:38;99491.40;;;6.50
69007;BMP180;56061;51.748;19.620;2024-03-08T11:53:05;99491.80;;;6.58
69007;BMP180;56061;51.748;19.620;2024-03-08T11:55:32;99488.60;;;6.60
69007;BMP180;56061;51.748;19.620;2024-03-08T11:58:03;99484.40;;;6.60
69007;BMP180;56061;51.748;19.620;2024-03-08T12:00:30;99479.80;;;6.60
69007;BMP180;56061;51.748;19.620;2024-03-08T12:03:06;99472.60;;;6.70
69007;BMP180;56061;51.748;19.620;2024-03-08T12:05:34;99468.20;;;6.70
69007;BMP180;56061;51.748;19.620;2024-03-08T12:08:02;99465.80;;;6.78
69007;BMP180;56061;51.748;19.620;2024-03-08T12:10:29;99458.00;;;6.86
69007;BMP180;56061;51.748;19.620;2024-03-08T12:12:58;99460.60;;;6.94
69007;BMP180;56061;51.748;19.620;2024-03-08T12:15:32;99462.40;;;7.00
69007;BMP180;56061;51.748;19.620;2024-03-08T12:18:01;99457.60;;;7.10
69007;BMP180;56061;51.748;19.620;2024-03-08T12:20:29;99455.40;;;7.10
69007;BMP180;56061;51.748;19.620;2024-03-08T12:22:59;99457.20;;;7.16
69007;BMP180;56061;51.748;19.620;2024-03-08T12:25:33;99455.00;;;7.20
69007;BMP180;56061;51.748;19.620;2024-03-08T12:28:11;99446.60;;;7.36
69007;BMP180;56061;51.748;19.620;2024-03-08T12:30:47;99444.80;;;7.40
69007;BMP180;56061;51.748;19.620;2024-03-08T12:33:15;99447.20;;;7.40
69007;BMP180;56061;51.748;19.620;2024-03-08T12:35:51;99442.20;;;7.40
69007;BMP180;56061;51.748;19.620;2024-03-08T12:38:22;99440.60;;;7.40
69007;BMP180;56061;51.748;19.620;2024-03-08T12:43:23;99432.20;;;7.40
69007;BMP180;56061;51.748;19.620;2024-03-08T12:45:50;99428.80;;;7.50
69007;BMP180;56061;51.748;19.620;2024-03-08T12:48:18;99426.60;;;7.50
69007;BMP180;56061;51.748;19.620;2024-03-08T12:50:45;99422.60;;;7.50
69007;BMP180;56061;51.748;19.620;2024-03-08T12:53:14;99416.20;;;7.60
69007;BMP180;56061;51.748;19.620;2024-03-08T12:55:41;99419.60;;;7.60
69007;BMP180;56061;51.748;19.620;2024-03-08T12:58:07;99417.20;;;7.70
69007;BMP180;56061;51.748;19.620;2024-03-08T13:00:35;99414.40;;;7.72
69007;BMP180;56061;51.748;19.620;2024-03-08T13:03:09;99414.00;;;7.80
69007;BMP180;56061;51.748;19.620;2024-03-08T13:05:38;99411.00;;;7.86
69007;BMP180;56061;51.748;19.620;2024-03-08T13:08:07;99403.40;;;7.90
69007;BMP180;56061;51.748;19.620;2024-03-08T13:10:40;99403.40;;;7.90
69007;BMP180;56061;51.748;19.620;2024-03-08T13:13:10;99404.80;;;7.90
69007;BMP180;56061;51.748;19.620;2024-03-08T13:15:40;99404.60;;;8.00
69007;BMP180;56061;51.748;19.620;2024-03-08T13:18:07;99407.20;;;8.00
69007;BMP180;56061;51.748;19.620;2024-03-08T13:20:35;99398.20;;;8.00
69007;BMP180;56061;51.748;19.620;2024-03-08T13:23:13;99403.00;;;8.00
69007;BMP180;56061;51.748;19.620;2024-03-08T13:25:39;99400.40;;;8.00
69007;BMP180;56061;51.748;19.620;2024-03-08T13:28:07;99392.00;;;8.10
69007;BMP180;56061;51.748;19.620;2024-03-08T13:30:35;99393.40;;;8.20
69007;BMP180;56061;51.748;19.620;2024-03-08T13:33:01;99384.80;;;8.26
69007;BMP180;56061;51.748;19.620;2024-03-08T13:35:31;99385.00;;;8.30
69007;BMP180;56061;51.748;19.620;2024-03-08T13:37:59;99384.20;;;8.30
69007;BMP180;56061;51.748;19.620;2024-03-08T13:40:26;99382.40;;;8.22
69007;BMP180;56061;51.748;19.620;2024-03-08T13:42:52;99378.80;;;8.20
69007;BMP180;56061;51.748;19.620;2024-03-08T13:45:19;99378.00;;;8.20
69007;BMP180;56061;51.748;19.620;2024-03-08T13:47:50;99372.60;;;8.30
69007;BMP180;56061;51.748;19.620;2024-03-08T13:50:20;99368.80;;;8.40
69007;BMP180;56061;51.748;19.620;2024-03-08T13:52:50;99369.40;;;8.50
69007;BMP180;56061;51.748;19.620;2024-03-08T13:55:23;99367.60;;;8.50
69007;BMP180;56061;51.748;19.620;2024-03-08T13:57:53;99369.40;;;8.60
69007;BMP180;56061;51.748;19.620;2024-03-08T14:00:20;99367.40;;;8.60
69007;BMP180;56061;51.748;19.620;2024-03-08T14:02:53;99363.20;;;8.70
69007;BMP180;56061;51.748;19.620;2024-03-08T14:05:20;99357.20;;;8.80
69007;BMP180;56061;51.748;19.620;2024-03-08T14:07:47;99357.80;;;8.80
69007;BMP180;56061;51.748;19.620;2024-03-08T14:10:16;99348.00;;;8.90
69007;BMP180;56061;51.748;19.620;2024-03-08T14:12:47;99347.40;;;8.98
69007;BMP180;56061;51.748;19.620;2024-03-08T14:15:16;99346.40;;;8.90
69007;BMP180;56061;51.748;19.620;2024-03-08T14:17:43;99347.00;;;8.90
69007;BMP180;56061;51.748;19.620;2024-03-08T14:20:13;99348.80;;;8.80
69007;BMP180;56061;51.748;19.620;2024-03-08T14:22:40;99344.20;;;8.70
69007;BMP180;56061;51.748;19.620;2024-03-08T14:25:07;99343.80;;;8.70
69007;BMP180;56061;51.748;19.620;2024-03-08T14:27:46;99343.60;;;8.70
69007;BMP180;56061;51.748;19.620;2024-03-08T14:30:13;99341.40;;;8.70
69007;BMP180;56061;51.748;19.620;2024-03-08T14:32:44;99336.60;;;8.78